Terminal Aerodrome Forecast
Issued by NWS Louisville, KY

Home | Current Version | Previous Version | Text Only | Print | Product List | Glossary On
Versions: 1 2 3 4 5 6 7 8 9 10 11 12 13 14 15 16 17 18 19
000
FTUS43 KLMK 230539
TAFSDF
TAF
KSDF 230539Z 2306/2412 06003KT 1SM BR OVC002
      TEMPO 2307/2309 SHRA
     FM230900 09003KT 1 1/2SM SHRA BR SCT004 OVC006 WS020/22040KT
     FM231200 17005KT 2SM -SHRA BR SCT004 OVC007
     FM231500 21011G17KT 3SM -SHRA BR SCT008 OVC011
     FM232300 30005KT 2SM BR VCSH OVC004=

USA.gov is the U.S. government's official web portal to all federal, state and local government web resources and services.